Time;durP1;ratioP1;P1;durP2;ratioP2;P2;SDS_P1;SDS_P2;PMS_P1;PMS_P2;Temp;Humidity;BMP_temperature;BMP_pressure;BME280_temperature;BME280_humidity;BME280_pressure;Samples;Min_cycle;Max_cycle;Signal;HPM_P1;HPM_P2
2023/05/02 00:02:02;;;;;;;82.13;77.60;;;;;;;7.56;85.07;98232.47;4975266;28;20030;-76
2023/05/02 00:04:28;;;;;;;89.47;84.57;;;;;;;7.53;84.92;98229.44;4975989;28;20038;-77
2023/05/02 00:06:53;;;;;;;88.68;83.78;;;;;;;7.55;84.27;98232.69;4965670;28;20030;-77
2023/05/02 00:09:19;;;;;;;86.30;81.70;;;;;;;7.53;84.34;98230.25;4978213;28;20046;-76
2023/05/02 00:11:44;;;;;;;89.65;84.95;;;;;;;7.51;84.41;98226.94;4978225;28;20026;-76
2023/05/02 00:14:10;;;;;;;89.15;84.45;;;;;;;7.51;84.45;98223.47;4994223;28;20511;-76
2023/05/02 00:16:35;;;;;;;84.28;79.88;;;;;;;7.50;84.54;98227.19;4978128;28;20076;-76
2023/05/02 00:19:01;;;;;;;82.32;78.03;;;;;;;7.52;84.08;98222.41;4980765;28;20043;-77
2023/05/02 00:21:28;;;;;;;83.90;79.45;;;;;;;7.34;84.55;98222.44;4974864;28;20118;-77
2023/05/02 00:23:56;;;;;;;82.22;77.82;;;;;;;7.26;85.84;98218.19;4975133;28;20390;-77
2023/05/02 00:26:22;;;;;;;86.28;81.78;;;;;;;7.32;84.53;98228.03;4960024;28;20030;-77
2023/05/02 00:28:49;;;;;;;87.10;82.03;;;;;;;7.34;85.76;98214.38;4960477;28;20039;-79
2023/05/02 00:31:15;;;;;;;82.65;77.80;;;;;;;7.11;86.69;98224.94;4945683;29;20031;-77
2023/05/02 00:33:40;;;;;;;85.50;80.88;;;;;;;7.24;85.13;98208.72;4975774;28;20672;-76
2023/05/02 00:36:18;;;;;;;82.78;78.45;;;;;;;7.25;85.49;98215.72;4958492;28;20042;-77
2023/05/02 00:38:44;;;;;;;93.20;86.53;;;;;;;7.19;85.41;98224.66;4958338;28;20038;-77
2023/05/02 00:41:10;;;;;;;82.65;78.05;;;;;;;7.19;86.42;98213.97;4955109;28;20065;-76
2023/05/02 00:43:38;;;;;;;87.90;83.20;;;;;;;7.19;85.18;98213.97;4958100;28;20066;-77
2023/05/02 00:46:03;;;;;;;85.70;80.90;;;;;;;7.29;85.38;98217.75;4974092;28;20034;-77
2023/05/02 00:48:29;;;;;;;80.88;76.10;;;;;;;7.34;85.03;98211.72;4971397;28;20493;-77
2023/05/02 00:50:56;;;;;;;83.82;78.93;;;;;;;7.40;85.45;98218.84;4967745;28;20056;-77
2023/05/02 00:53:21;;;;;;;80.80;76.22;;;;;;;7.30;86.28;98221.25;4973474;28;20037;-76
2023/05/02 00:55:48;;;;;;;81.80;77.50;;;;;;;7.44;85.52;98217.38;4968008;28;20081;-77
2023/05/02 00:58:15;;;;;;;83.18;78.63;;;;;;;7.40;86.48;98218.84;4974799;28;20404;-76
2023/05/02 01:01:03;;;;;;;80.47;76.18;;;;;;;7.29;86.29;98211.56;4983936;28;20029;-75
2023/05/02 01:03:41;;;;;;;84.57;79.95;;;;;;;7.07;86.77;98215.72;4968362;28;20085;-77
2023/05/02 01:06:19;;;;;;;83.80;79.20;;;;;;;6.99;87.21;98222.19;4971295;28;20042;-76
2023/05/02 01:08:52;;;;;;;82.18;77.57;;;;;;;7.03;87.62;98223.38;4967416;28;20080;-76
2023/05/02 01:11:48;;;;;;;81.95;77.25;;;;;;;7.10;87.57;98217.94;4949194;28;20550;-78
2023/05/02 01:14:14;;;;;;;80.53;75.75;;;;;;;7.17;87.11;98224.03;4980008;28;20033;-77
2023/05/02 01:16:42;;;;;;;80.55;76.30;;;;;;;7.12;86.70;98218.56;4959149;28;20038;-77
2023/05/02 01:19:23;;;;;;;76.75;72.47;;;;;;;7.05;87.14;98220.50;4949030;28;20050;-77
2023/05/02 01:21:48;;;;;;;79.80;75.25;;;;;;;7.14;85.27;98219.16;4967897;28;20031;-76
2023/05/02 01:24:21;;;;;;;81.00;76.30;;;;;;;7.12;85.82;98226.59;4954831;28;20030;-77
2023/05/02 01:26:58;;;;;;;78.10;73.60;;;;;;;7.05;86.25;98215.94;4969723;28;20043;-78
2023/05/02 01:29:25;;;;;;;76.47;72.15;;;;;;;7.13;86.26;98223.69;4948957;28;20128;-76
2023/05/02 01:31:51;;;;;;;80.07;75.85;;;;;;;7.12;85.66;98226.59;4961034;28;20472;-77
2023/05/02 01:34:18;;;;;;;78.47;74.15;;;;;;;7.02;85.88;98235.13;4963656;28;20034;-77
2023/05/02 01:36:46;;;;;;;78.85;74.30;;;;;;;7.04;85.95;98222.34;4965278;28;20050;-77
2023/05/02 01:39:15;;;;;;;79.93;75.50;;;;;;;7.04;85.24;98225.00;4954509;28;20137;-77
2023/05/02 01:41:41;;;;;;;83.93;79.15;;;;;;;7.05;85.61;98220.50;4986264;28;20084;-77
2023/05/02 01:44:08;;;;;;;81.90;77.60;;;;;;;7.16;85.69;98222.44;4963778;28;20034;-77
2023/05/02 01:46:35;;;;;;;82.28;77.78;;;;;;;7.02;84.74;98215.56;4980211;28;20065;-77
2023/05/02 01:49:06;;;;;;;81.40;77.10;;;;;;;7.03;85.01;98222.53;4948265;28;20152;-76
2023/05/02 01:51:33;;;;;;;76.43;72.22;;;;;;;6.97;85.40;98219.72;4959647;28;20038;-77
2023/05/02 01:54:02;;;;;;;76.95;72.57;;;;;;;6.94;85.83;98233.56;4985474;28;20038;-76
2023/05/02 01:56:31;;;;;;;77.85;73.65;;;;;;;6.94;85.47;98220.16;4970395;28;20041;-77
2023/05/02 01:58:56;;;;;;;78.90;74.55;;;;;;;6.95;86.15;98227.13;4949646;28;20109;-76
2023/05/02 02:01:26;;;;;;;79.70;75.00;;;;;;;6.57;87.04;98231.81;4990552;28;20092;-76
2023/05/02 02:03:53;;;;;;;83.55;78.10;;;;;;;6.64;87.99;98229.91;4965463;28;20137;-77
2023/05/02 02:06:19;;;;;;;79.60;74.65;;;;;;;6.71;87.78;98229.84;4963760;28;20644;-76
2023/05/02 02:08:45;;;;;;;81.68;76.28;;;;;;;6.56;88.57;98238.19;4983824;28;20043;-76
2023/05/02 02:11:12;;;;;;;82.47;77.47;;;;;;;6.77;87.60;98234.31;4952781;28;20028;-76
2023/05/02 02:13:43;;;;;;;81.20;76.38;;;;;;;6.76;86.98;98236.19;4948988;28;20034;-76
2023/05/02 02:16:10;;;;;;;78.88;74.40;;;;;;;6.79;86.75;98243.75;4963401;28;20038;-77
2023/05/02 02:18:37;;;;;;;78.20;73.25;;;;;;;6.39;87.51;98253.16;4947843;29;20482;-77
2023/05/02 02:21:05;;;;;;;77.53;72.95;;;;;;;6.46;88.81;98251.25;4954209;28;20038;-76
2023/05/02 02:23:32;;;;;;;78.75;73.65;;;;;;;6.77;87.72;98245.84;4966592;28;20018;-77
2023/05/02 02:25:57;;;;;;;79.50;75.05;;;;;;;6.85;86.62;98248.25;4979431;28;20035;-77
2023/05/02 02:28:22;;;;;;;75.57;71.47;;;;;;;6.91;85.68;98257.25;4982746;28;20153;-77
2023/05/02 02:30:48;;;;;;;74.05;69.97;;;;;;;6.75;86.25;98260.47;4986109;28;20787;-77
2023/05/02 02:33:13;;;;;;;73.10;68.57;;;;;;;6.81;85.10;98267.66;4965896;28;20116;-77
2023/05/02 02:35:45;;;;;;;75.60;71.45;;;;;;;6.77;85.64;98261.91;4973155;28;20165;-77
2023/05/02 02:38:22;;;;;;;73.07;68.97;;;;;;;6.86;85.82;98271.28;4967274;28;20038;-77
2023/05/02 02:40:59;;;;;;;71.45;67.55;;;;;;;6.93;85.81;98280.09;4976418;28;20034;-77
2023/05/02 02:43:35;;;;;;;70.47;66.68;;;;;;;6.88;85.65;98266.53;4963263;28;20121;-77
2023/05/02 02:46:51;;;;;;;71.05;67.13;;;;;;;6.84;85.86;98273.38;4964738;28;20510;-76
2023/05/02 02:49:35;;;;;;;73.28;69.13;;;;;;;6.90;85.29;98272.50;4961738;28;20054;-76
2023/05/02 02:52:12;;;;;;;67.53;63.83;;;;;;;6.81;85.69;98273.78;4962827;28;20571;-76
2023/05/02 02:55:08;;;;;;;72.13;67.95;;;;;;;6.70;86.10;98285.22;4963477;28;20489;-77
2023/05/02 02:57:42;;;;;;;68.50;64.30;;;;;;;6.54;87.83;98296.44;4945374;28;20074;-77
2023/05/02 03:00:13;;;;;;;73.10;69.07;;;;;;;6.40;88.54;98302.91;4954067;29;20039;-78
2023/05/02 03:02:41;;;;;;;74.45;70.22;;;;;;;6.47;89.16;98311.72;4962355;28;20468;-78
2023/05/02 03:05:08;;;;;;;76.30;71.60;;;;;;;6.74;89.26;98321.22;4948033;28;20029;-78
2023/05/02 03:07:33;;;;;;;78.95;74.50;;;;;;;7.09;88.53;98318.06;4962935;28;20041;-76
2023/05/02 03:10:03;;;;;;;77.40;72.85;;;;;;;7.18;88.02;98317.56;4968020;28;20038;-78
2023/05/02 03:12:28;;;;;;;75.43;71.22;;;;;;;7.18;86.53;98309.53;4965701;28;20038;-78
2023/05/02 03:15:02;;;;;;;70.13;66.43;;;;;;;7.24;86.30;98300.63;4980731;28;20027;-77
2023/05/02 03:17:27;;;;;;;72.18;68.00;;;;;;;7.33;85.88;98319.88;4944716;28;20035;-77
2023/05/02 03:19:54;;;;;;;71.40;67.30;;;;;;;7.20;86.58;98317.34;4985696;28;20026;-77
2023/05/02 03:22:19;;;;;;;69.25;65.30;;;;;;;7.15;87.26;98328.72;4969068;28;20081;-77
2023/05/02 03:24:44;;;;;;;70.57;66.40;;;;;;;7.32;86.35;98328.97;4964131;28;20397;-77
2023/05/02 03:27:12;;;;;;;70.32;66.53;;;;;;;7.13;87.02;98321.94;4944345;28;20507;-77
2023/05/02 03:29:40;;;;;;;72.05;67.78;;;;;;;7.16;86.61;98332.22;4983718;28;20042;-77
2023/05/02 03:32:06;;;;;;;71.25;66.95;;;;;;;7.11;87.24;98350.81;4969385;28;20030;-78
2023/05/02 03:34:32;;;;;;;71.70;67.32;;;;;;;7.04;88.55;98344.69;4939859;28;20050;-77
2023/05/02 03:36:58;;;;;;;71.57;67.45;;;;;;;7.22;87.97;98339.38;4973804;28;20066;-78
2023/05/02 03:39:24;;;;;;;72.53;68.53;;;;;;;7.33;86.42;98336.78;4967607;28;20043;-77
2023/05/02 03:41:49;;;;;;;69.97;65.95;;;;;;;7.26;86.91;98333.34;4968837;28;20116;-76
2023/05/02 03:44:18;;;;;;;69.43;65.43;;;;;;;7.41;86.59;98339.19;4955887;28;20054;-77
2023/05/02 03:46:43;;;;;;;66.60;62.75;;;;;;;7.45;86.05;98339.56;4956994;28;20078;-77
2023/05/02 03:49:11;;;;;;;67.20;63.20;;;;;;;7.11;86.71;98329.38;4948843;28;20033;-77
2023/05/02 03:51:38;;;;;;;73.68;69.30;;;;;;;7.22;86.56;98340.19;4944229;28;20042;-77
2023/05/02 03:54:03;;;;;;;69.47;65.18;;;;;;;7.41;86.96;98343.72;4971571;28;20085;-77
2023/05/02 03:56:30;;;;;;;73.38;69.22;;;;;;;7.31;87.20;98338.06;4984769;28;20376;-76
2023/05/02 03:59:10;;;;;;;71.43;67.13;;;;;;;7.24;87.67;98354.19;4957466;28;20035;-76
2023/05/02 04:01:36;;;;;;;71.93;67.57;;;;;;;7.43;86.67;98355.03;4971265;28;20037;-75
2023/05/02 04:04:01;;;;;;;71.88;67.68;;;;;;;7.50;86.46;98358.47;4965262;28;20022;-76
2023/05/02 04:06:32;;;;;;;76.03;71.03;;;;;;;7.20;87.63;98352.16;4963446;28;20030;-76
2023/05/02 04:09:01;;;;;;;72.90;68.55;;;;;;;7.41;86.88;98362.50;4964371;28;20034;-77
2023/05/02 04:11:33;;;;;;;70.35;66.15;;;;;;;7.53;86.60;98353.53;4966053;28;20083;-76
2023/05/02 04:14:01;;;;;;;71.97;67.70;;;;;;;7.65;86.46;98353.59;4920763;29;20118;-77
2023/05/02 04:16:28;;;;;;;72.90;68.60;;;;;;;7.54;86.58;98339.06;4969321;28;20019;-76
2023/05/02 04:18:53;;;;;;;74.38;70.00;;;;;;;7.58;86.14;98348.28;4979655;28;20030;-76
2023/05/02 04:21:19;;;;;;;73.55;69.20;;;;;;;7.63;86.00;98358.38;4969357;28;20031;-77
2023/05/02 04:23:46;;;;;;;72.97;68.45;;;;;;;7.37;88.34;98363.97;5013928;23;20043;-77
2023/05/02 04:26:13;;;;;;;74.13;69.32;;;;;;;7.25;88.64;98371.91;4984415;28;20059;-76
2023/05/02 04:28:45;;;;;;;74.35;69.70;;;;;;;7.15;88.49;98370.75;4969231;28;20049;-77
2023/05/02 04:31:13;;;;;;;72.10;67.70;;;;;;;7.24;88.48;98374.78;4949511;28;20130;-76
2023/05/02 04:33:39;;;;;;;71.03;66.35;;;;;;;7.37;87.47;98369.34;4983294;23;20638;-76
2023/05/02 04:36:06;;;;;;;73.43;69.03;;;;;;;7.42;87.88;98380.22;5013986;28;20030;-76
2023/05/02 04:38:33;;;;;;;72.15;67.45;;;;;;;7.34;87.45;98391.19;4997441;28;20072;-75
2023/05/02 04:40:58;;;;;;;99.43;92.32;;;;;;;7.16;88.86;98400.00;5013602;28;20037;-76
2023/05/02 04:43:31;;;;;;;79.95;74.30;;;;;;;7.18;89.53;98397.91;5013344;28;20026;-76
2023/05/02 04:46:00;;;;;;;74.55;69.82;;;;;;;7.20;89.04;98395.00;4997674;28;20518;-75
2023/05/02 04:48:40;;;;;;;79.20;74.32;;;;;;;7.19;88.56;98398.75;5013458;28;20065;-75
2023/05/02 04:51:06;;;;;;;78.38;73.45;;;;;;;7.17;89.09;98411.50;5013570;28;20034;-75
2023/05/02 04:53:32;;;;;;;75.13;69.93;;;;;;;6.83;90.14;98421.63;4996820;28;20025;-77
2023/05/02 04:55:57;;;;;;;73.82;68.68;;;;;;;6.84;90.22;98412.56;4981056;28;20022;-75
2023/05/02 04:58:23;;;;;;;73.47;68.78;;;;;;;7.14;89.22;98428.03;4997100;28;20025;-76
2023/05/02 05:00:55;;;;;;;66.40;62.60;;;;;;;7.40;88.13;98430.50;4995803;28;20029;-75
2023/05/02 05:03:21;;;;;;;72.38;67.85;;;;;;;7.49;88.37;98431.88;5014905;28;20037;-75
2023/05/02 05:05:46;;;;;;;71.20;66.72;;;;;;;7.35;88.58;98428.47;5014157;28;20026;-76
2023/05/02 05:08:14;;;;;;;63.03;59.30;;;;;;;7.77;87.33;98434.91;4997100;28;20144;-76
2023/05/02 05:10:39;;;;;;;67.72;63.97;;;;;;;7.87;85.89;98427.19;4996973;28;20026;-73
2023/05/02 05:13:07;;;;;;;64.70;60.65;;;;;;;8.00;86.32;98429.75;5013313;28;20032;-76
2023/05/02 05:15:32;;;;;;;68.60;64.63;;;;;;;8.12;86.19;98421.78;4996829;28;20443;-76
2023/05/02 05:17:59;;;;;;;70.95;66.78;;;;;;;8.08;85.29;98424.09;5028604;28;20738;-76
2023/05/02 05:20:26;;;;;;;67.35;63.25;;;;;;;8.04;86.63;98428.25;4993550;28;20699;-76
2023/05/02 05:22:55;;;;;;;67.57;63.55;;;;;;;8.21;86.31;98441.91;4981810;28;20060;-76
2023/05/02 05:25:21;;;;;;;81.28;75.78;;;;;;;8.06;87.60;98442.25;4996627;28;20480;-76
2023/05/02 05:27:48;;;;;;;75.00;70.32;;;;;;;7.87;88.55;98451.31;5012639;28;20048;-77
2023/05/02 05:30:14;;;;;;;75.65;70.75;;;;;;;7.82;87.57;98439.63;5012737;28;20025;-76
2023/05/02 05:35:16;;;;;;;76.72;71.82;;;;;;;7.62;88.65;98442.47;5601480;22;20053;-76
2023/05/02 05:37:42;;;;;;;78.45;73.10;;;;;;;7.80;88.54;98463.97;4954436;28;20042;-76
2023/05/02 05:40:10;;;;;;;83.65;77.65;;;;;;;7.65;88.75;98466.19;4954323;28;20480;-77
2023/05/02 05:42:37;;;;;;;89.07;82.25;;;;;;;7.75;89.83;98463.00;4951057;28;20104;-76
2023/05/02 05:45:09;;;;;;;76.65;71.40;;;;;;;7.73;88.95;98459.69;4964312;28;20019;-76
2023/05/02 05:47:34;;;;;;;89.68;82.72;;;;;;;7.89;88.67;98470.69;4967214;28;20025;-74
2023/05/02 05:50:00;;;;;;;82.13;76.43;;;;;;;7.76;89.38;98476.19;4967207;28;20030;-76
2023/05/02 05:52:28;;;;;;;84.90;78.90;;;;;;;7.88;89.03;98474.44;4967464;28;20084;-75
2023/05/02 05:54:55;;;;;;;87.00;81.00;;;;;;;7.90;88.77;98483.06;4971210;28;20049;-75
2023/05/02 05:57:22;;;;;;;76.65;71.65;;;;;;;8.17;87.81;98484.44;4979820;28;20551;-77
2023/05/02 05:59:48;;;;;;;77.13;71.45;;;;;;;7.90;89.23;98492.97;4970078;28;20065;-77
2023/05/02 06:02:15;;;;;;;82.72;77.57;;;;;;;7.95;88.81;98495.81;4958458;28;20540;-77
2023/05/02 06:04:41;;;;;;;78.55;73.35;;;;;;;8.03;89.40;98504.38;4986984;28;20030;-77
2023/05/02 06:07:07;;;;;;;80.32;75.30;;;;;;;8.21;87.98;98499.03;4951822;28;20039;-77
2023/05/02 06:09:32;;;;;;;80.13;74.40;;;;;;;7.97;89.11;98505.28;4973374;28;20165;-77
2023/05/02 06:11:58;;;;;;;79.70;74.30;;;;;;;8.00;88.29;98515.56;4953474;28;20120;-78
2023/05/02 06:14:23;;;;;;;80.53;74.88;;;;;;;8.00;88.63;98515.56;4965666;28;20030;-77
2023/05/02 06:16:50;;;;;;;81.53;76.00;;;;;;;7.96;89.43;98519.72;4971998;28;20507;-78
2023/05/02 06:19:16;;;;;;;82.22;76.95;;;;;;;8.18;87.89;98528.19;4989822;28;20049;-78
2023/05/02 06:21:41;;;;;;;80.50;75.10;;;;;;;8.19;88.39;98530.66;4944884;28;20076;-78
2023/05/02 06:24:07;;;;;;;83.93;78.22;;;;;;;8.34;87.71;98517.75;4968902;28;20113;-78
2023/05/02 06:26:32;;;;;;;84.50;78.70;;;;;;;8.42;87.96;98526.53;4992742;28;20388;-77
2023/05/02 06:28:57;;;;;;;82.53;77.07;;;;;;;8.62;87.20;98540.56;4956814;28;20034;-78
2023/05/02 06:31:23;;;;;;;81.63;76.00;;;;;;;8.30;87.78;98546.06;5002155;28;20038;-78
2023/05/02 06:33:48;;;;;;;104.13;96.47;;;;;;;8.21;89.67;98547.34;4948618;28;20027;-78
2023/05/02 06:36:14;;;;;;;101.13;93.43;;;;;;;8.39;89.21;98545.75;4986976;28;20048;-78
2023/05/02 06:38:39;;;;;;;89.90;83.60;;;;;;;8.76;87.50;98548.25;4989016;28;20033;-78
2023/05/02 06:41:04;;;;;;;83.88;77.82;;;;;;;8.47;87.99;98558.91;4984281;28;20050;-78
2023/05/02 06:43:30;;;;;;;87.28;81.25;;;;;;;8.60;89.22;98553.41;4964177;28;20039;-77
2023/05/02 06:45:56;;;;;;;87.63;81.43;;;;;;;8.65;88.38;98550.88;4967746;28;20057;-78
2023/05/02 06:48:22;;;;;;;88.40;82.20;;;;;;;8.63;87.91;98558.31;5001502;28;20499;-78
2023/05/02 06:50:48;;;;;;;87.38;81.20;;;;;;;8.73;88.72;98564.81;4967439;28;20037;-77
2023/05/02 06:53:14;;;;;;;85.60;79.93;;;;;;;8.71;87.48;98571.44;4980928;28;20037;-78
2023/05/02 06:55:39;;;;;;;87.28;80.85;;;;;;;8.89;88.25;98568.78;4971633;28;20030;-78
2023/05/02 06:58:04;;;;;;;84.70;78.88;;;;;;;9.13;87.83;98569.72;4988192;28;20384;-78
2023/05/02 07:00:30;;;;;;;90.97;84.60;;;;;;;9.20;88.07;98570.44;4967341;28;20069;-78
2023/05/02 07:02:55;;;;;;;89.95;83.95;;;;;;;9.07;88.07;98578.69;4981124;28;20030;-77
2023/05/02 07:05:21;;;;;;;90.57;84.28;;;;;;;9.25;87.18;98571.41;4999695;28;20042;-77
2023/05/02 07:07:46;;;;;;;87.10;81.35;;;;;;;9.09;86.97;98590.00;4993204;28;20029;-78
2023/05/02 07:10:11;;;;;;;87.03;81.22;;;;;;;9.09;87.52;98579.28;4966143;28;20046;-78
2023/05/02 07:12:38;;;;;;;84.53;78.95;;;;;;;8.97;88.40;98587.25;4994278;28;20032;-78
2023/05/02 07:15:06;;;;;;;90.70;84.88;;;;;;;9.30;87.59;98589.53;4982180;28;20072;-78
2023/05/02 07:17:31;;;;;;;87.88;82.38;;;;;;;9.33;86.53;98586.41;4949593;28;20025;-78
2023/05/02 07:19:57;;;;;;;85.47;80.03;;;;;;;9.33;86.95;98603.38;4967968;28;20042;-78
2023/05/02 07:22:22;;;;;;;83.85;78.38;;;;;;;9.39;86.73;98605.13;4966738;28;20034;-77
2023/05/02 07:24:47;;;;;;;80.85;75.68;;;;;;;9.60;85.52;98599.28;4982426;28;20495;-78
2023/05/02 07:27:13;;;;;;;76.20;71.47;;;;;;;9.95;84.21;98606.63;4962062;28;20027;-78
2023/05/02 07:29:39;;;;;;;78.78;73.85;;;;;;;9.99;82.47;98603.22;4970749;28;20170;-77
2023/05/02 07:32:05;;;;;;;73.13;68.53;;;;;;;9.99;82.76;98602.44;4971791;28;20022;-78
2023/05/02 07:34:31;;;;;;;74.00;69.35;;;;;;;10.06;84.15;98603.16;4966601;28;20034;-78
2023/05/02 07:36:56;;;;;;;69.55;65.22;;;;;;;10.08;82.09;98611.81;4963761;28;20361;-78
2023/05/02 07:39:23;;;;;;;64.57;60.47;;;;;;;9.92;81.00;98607.09;4986357;28;20041;-78
2023/05/02 07:41:52;;;;;;;58.97;55.10;;;;;;;10.08;81.18;98601.06;4988880;28;20056;-78
2023/05/02 07:44:17;;;;;;;58.00;54.25;;;;;;;10.49;79.90;98614.47;4982737;28;20026;-78
2023/05/02 07:46:43;;;;;;;55.15;51.25;;;;;;;10.42;79.52;98611.06;4965748;28;20157;-78
2023/05/02 07:49:08;;;;;;;54.83;51.08;;;;;;;10.45;79.75;98613.31;4971520;28;20516;-78
2023/05/02 07:51:33;;;;;;;62.83;58.60;;;;;;;10.33;82.47;98615.16;4988505;28;20026;-78
2023/05/02 07:54:00;;;;;;;73.90;69.53;;;;;;;10.38;83.66;98617.97;4994655;28;20042;-78
2023/05/02 07:56:25;;;;;;;65.18;61.28;;;;;;;10.85;80.45;98616.91;4982103;28;20025;-78
2023/05/02 07:58:51;;;;;;;64.20;60.13;;;;;;;10.73;80.42;98623.38;4988254;28;20097;-78
2023/05/02 08:01:16;;;;;;;65.53;61.53;;;;;;;11.08;79.55;98624.97;4976412;28;20033;-78
2023/05/02 08:03:42;;;;;;;63.15;59.25;;;;;;;11.55;78.42;98619.47;4987880;28;20038;-78
2023/05/02 08:06:08;;;;;;;42.55;39.65;;;;;;;11.45;75.88;98624.66;4973537;28;20304;-78
2023/05/02 08:08:34;;;;;;;37.10;34.60;;;;;;;11.72;76.03;98628.44;4952553;28;20046;-78
2023/05/02 08:10:59;;;;;;;40.72;38.15;;;;;;;11.96;76.67;98635.38;4970893;28;20387;-78
2023/05/02 08:13:26;;;;;;;34.08;31.52;;;;;;;11.71;75.41;98629.53;4986250;28;20041;-78
2023/05/02 08:15:55;;;;;;;35.40;32.95;;;;;;;12.18;76.21;98636.31;4970448;28;20018;-79
2023/05/02 08:18:20;;;;;;;34.00;31.60;;;;;;;12.10;74.99;98634.03;4988882;28;20038;-79
2023/05/02 08:20:47;;;;;;;24.63;22.60;;;;;;;12.28;72.51;98630.28;4985606;28;20038;-78
2023/05/02 08:23:12;;;;;;;22.88;20.77;;;;;;;12.32;72.72;98637.63;4975192;28;20042;-78
2023/05/02 08:25:37;;;;;;;22.25;20.33;;;;;;;11.97;72.77;98634.31;4992053;28;20460;-78
2023/05/02 08:28:03;;;;;;;23.45;21.48;;;;;;;12.09;73.07;98636.97;4996590;28;20038;-77
2023/05/02 08:30:28;;;;;;;26.42;24.40;;;;;;;12.53;72.82;98633.41;4992429;28;20387;-78
2023/05/02 08:32:54;;;;;;;26.80;24.33;;;;;;;12.64;72.63;98639.78;4986210;28;20482;-78
2023/05/02 08:35:19;;;;;;;25.02;23.00;;;;;;;13.31;71.37;98640.50;4950499;28;20030;-78
2023/05/02 08:37:44;;;;;;;31.92;29.48;;;;;;;12.13;75.56;98638.94;4998095;28;20048;-79
2023/05/02 08:40:11;;;;;;;32.85;30.48;;;;;;;12.49;74.79;98640.34;4984889;28;20026;-78
2023/05/02 08:42:36;;;;;;;25.70;23.75;;;;;;;12.64;73.00;98639.78;4979517;28;20048;-77
2023/05/02 08:45:03;;;;;;;28.23;26.08;;;;;;;12.80;72.90;98645.19;4984786;28;20034;-78
2023/05/02 08:47:28;;;;;;;28.65;26.20;;;;;;;13.08;72.89;98650.50;4974141;28;20042;-77
2023/05/02 08:49:55;;;;;;;22.30;20.50;;;;;;;13.21;70.89;98652.00;4974708;28;20534;-77
2023/05/02 08:52:21;;;;;;;23.77;21.80;;;;;;;13.49;71.17;98643.72;4981094;28;20056;-77
2023/05/02 08:54:46;;;;;;;25.00;23.02;;;;;;;13.61;71.61;98647.09;4983858;28;20635;-78
2023/05/02 08:57:11;;;;;;;23.02;20.98;;;;;;;13.54;70.94;98646.47;4990216;28;20036;-77
2023/05/02 08:59:37;;;;;;;28.00;25.80;;;;;;;13.22;73.58;98642.81;4988494;28;21453;-77
2023/05/02 09:02:22;;;;;;;24.23;22.30;;;;;;;13.47;71.24;98653.97;4977772;28;20030;-77
2023/05/02 09:04:48;;;;;;;28.13;25.90;;;;;;;13.59;72.50;98643.84;4990551;28;20080;-77
2023/05/02 09:07:14;;;;;;;24.95;22.67;;;;;;;12.85;72.61;98658.78;4987020;28;20077;-77
2023/05/02 09:09:39;;;;;;;25.08;23.05;;;;;;;13.33;72.06;98650.00;4964878;28;20037;-77
2023/05/02 09:12:05;;;;;;;23.92;21.77;;;;;;;13.44;71.51;98662.59;4996962;28;20506;-77
2023/05/02 09:14:31;;;;;;;23.67;21.55;;;;;;;13.94;70.12;98656.97;4983617;28;20117;-77
2023/05/02 09:17:00;;;;;;;21.15;19.25;;;;;;;13.91;70.42;98662.06;4988290;28;20026;-77
2023/05/02 09:19:26;;;;;;;21.52;19.52;;;;;;;13.88;70.08;98668.00;4973926;28;20498;-78
2023/05/02 09:21:51;;;;;;;17.08;15.57;;;;;;;13.83;68.34;98661.47;4996595;28;20026;-78
2023/05/02 09:24:19;;;;;;;11.95;10.82;;;;;;;13.86;67.11;98671.75;4967765;28;20046;-78
2023/05/02 09:27:01;;;;;;;12.88;11.57;;;;;;;14.03;66.99;98676.25;4971038;28;20037;-77
2023/05/02 09:29:29;;;;;;;12.93;11.63;;;;;;;14.01;67.38;98673.00;4974175;28;20046;-77
2023/05/02 09:31:55;;;;;;;13.15;11.85;;;;;;;14.30;66.40;98685.25;4985845;28;20034;-78
2023/05/02 09:34:21;;;;;;;12.30;11.10;;;;;;;14.64;64.99;98683.94;4983453;28;20033;-77
2023/05/02 09:36:52;;;;;;;13.32;11.90;;;;;;;15.19;63.94;98669.97;4952310;28;20026;-78
2023/05/02 09:39:20;;;;;;;12.35;10.07;;;;;;;15.10;62.50;98676.94;4990773;28;20088;-78
2023/05/02 09:41:46;;;;;;;9.82;8.27;;;;;;;15.67;60.92;98663.47;4989779;28;20108;-78
2023/05/02 09:44:13;;;;;;;8.57;7.78;;;;;;;15.52;62.36;98668.84;4967352;28;20037;-78
2023/05/02 09:46:46;;;;;;;8.50;7.63;;;;;;;14.96;62.52;98671.16;4983282;28;20030;-75
2023/05/02 09:49:13;;;;;;;8.02;6.93;;;;;;;14.95;60.18;98680.41;4941670;28;20039;-77
2023/05/02 09:51:39;;;;;;;9.05;7.00;;;;;;;15.10;61.70;98676.94;4986005;28;20021;-77
2023/05/02 09:54:04;;;;;;;12.05;7.60;;;;;;;15.33;60.36;98670.31;4988613;28;20097;-78
2023/05/02 09:56:29;;;;;;;8.20;7.40;;;;;;;14.80;60.01;98685.69;4980132;28;20030;-78
2023/05/02 09:59:14;;;;;;;10.43;6.75;;;;;;;15.03;59.74;98681.78;4988679;28;20374;-77
2023/05/02 10:01:41;;;;;;;8.73;7.10;;;;;;;14.76;59.59;98681.88;4941875;28;20382;-77
2023/05/02 10:04:14;;;;;;;8.50;6.50;;;;;;;14.74;60.47;98684.03;4995480;28;20026;-78
2023/05/02 10:06:39;;;;;;;6.80;6.00;;;;;;;14.46;62.45;98677.03;4983380;28;20431;-77
2023/05/02 10:09:04;;;;;;;7.10;6.28;;;;;;;15.20;60.03;98677.03;4984140;28;20034;-78
2023/05/02 10:11:31;;;;;;;7.80;7.00;;;;;;;15.10;60.61;98694.06;4969974;28;20030;-77
2023/05/02 10:13:57;;;;;;;8.55;7.10;;;;;;;14.97;61.49;98690.97;4978714;28;20026;-78
2023/05/02 10:16:27;;;;;;;9.68;6.95;;;;;;;14.97;60.46;98686.38;4967560;28;20038;-78
2023/05/02 10:19:02;;;;;;;7.93;6.05;;;;;;;14.92;60.85;98680.09;4988439;28;20104;-77
2023/05/02 10:21:28;;;;;;;8.07;6.32;;;;;;;14.53;60.43;98682.22;4969909;28;20052;-77
2023/05/02 10:23:54;;;;;;;9.43;7.28;;;;;;;14.90;60.84;98682.25;4989201;28;20399;-77
2023/05/02 10:26:22;;;;;;;8.85;6.35;;;;;;;14.66;60.10;98692.63;4979100;28;20036;-77
2023/05/02 10:28:49;;;;;;;7.90;6.60;;;;;;;14.47;60.71;98691.38;4982642;28;20033;-78
2023/05/02 10:31:16;;;;;;;9.70;6.47;;;;;;;14.69;60.56;98691.31;4987873;28;20055;-78
2023/05/02 10:33:42;;;;;;;7.78;6.35;;;;;;;14.56;59.80;98692.56;4976444;28;20038;-78
2023/05/02 10:36:09;;;;;;;8.68;6.45;;;;;;;14.63;61.03;98698.59;4968255;28;20093;-77
2023/05/02 10:38:35;;;;;;;7.80;6.40;;;;;;;14.74;59.03;98692.16;4991303;28;20025;-77
2023/05/02 10:41:04;;;;;;;8.18;6.03;;;;;;;14.84;60.49;98692.22;4979249;28;20484;-77
2023/05/02 10:43:32;;;;;;;7.80;6.85;;;;;;;14.85;60.84;98691.16;4981875;28;20468;-78
2023/05/02 10:45:57;;;;;;;7.97;7.00;;;;;;;14.93;61.47;98693.41;4989592;28;20065;-77
2023/05/02 10:48:24;;;;;;;8.18;7.10;;;;;;;14.44;61.42;98694.63;5016622;28;20452;-77
2023/05/02 10:50:54;;;;;;;9.07;6.95;;;;;;;14.41;62.29;98689.69;5012652;28;20038;-77
2023/05/02 10:53:25;;;;;;;9.07;7.75;;;;;;;14.16;62.90;98697.56;4947648;28;20496;-77
2023/05/02 10:56:11;;;;;;;9.90;8.45;;;;;;;14.00;64.28;98701.16;4984789;28;20484;-78
2023/05/02 10:58:36;;;;;;;10.98;9.00;;;;;;;13.97;65.26;98693.53;4982081;28;20121;-77
2023/05/02 11:01:23;;;;;;;12.45;10.15;;;;;;;13.92;66.41;98697.00;4981076;28;20117;-77
2023/05/02 11:04:03;;;;;;;11.57;10.00;;;;;;;14.05;66.06;98696.59;5011185;28;20038;-78
2023/05/02 11:06:32;;;;;;;10.82;9.82;;;;;;;14.11;68.33;98683.94;4965601;28;20487;-76
2023/05/02 11:09:16;;;;;;;13.25;11.95;;;;;;;14.05;68.49;98695.81;4984750;28;20037;-78
2023/05/02 11:11:43;;;;;;;10.60;9.57;;;;;;;14.35;67.58;98690.75;4978790;28;20129;-78
2023/05/02 11:14:10;;;;;;;13.40;11.15;;;;;;;15.27;66.67;98687.66;4999153;28;20109;-78
2023/05/02 11:17:00;;;;;;;14.30;12.98;;;;;;;16.37;64.18;98677.22;4971970;28;20604;-78
2023/05/02 11:19:27;;;;;;;12.43;11.02;;;;;;;16.25;65.90;98678.56;4988100;28;20038;-77
2023/05/02 11:22:22;;;;;;;11.15;9.82;;;;;;;15.55;63.42;98669.09;4994522;28;20026;-78
2023/05/02 11:24:49;;;;;;;11.30;9.23;;;;;;;15.57;63.28;98666.13;4970793;28;20030;-78
2023/05/02 11:27:34;;;;;;;11.88;9.85;;;;;;;16.66;62.05;98665.88;4981550;28;20026;-77
2023/05/02 11:30:07;;;;;;;10.68;8.70;;;;;;;16.59;60.87;98663.44;5001722;28;20053;-77
2023/05/02 11:32:48;;;;;;;9.57;8.05;;;;;;;16.10;58.02;98676.66;4991705;28;20042;-78